createdAt,value
2022-10-09T00:04:50.089Z,984.08
2022-10-09T00:09:49.958Z,984.07
2022-10-09T00:14:49.934Z,984.05
2022-10-09T00:19:49.854Z,984.08
2022-10-09T00:24:49.785Z,984.04
2022-10-09T00:29:49.803Z,984.07
2022-10-09T00:34:49.665Z,984.07
2022-10-09T00:39:49.626Z,984.05
2022-10-09T00:44:49.606Z,984.09
2022-10-09T00:49:49.504Z,984.08
2022-10-09T00:54:49.435Z,984.16
2022-10-09T00:59:49.387Z,984.11
2022-10-09T01:04:49.324Z,984.04
2022-10-09T01:09:49.268Z,984.07
2022-10-09T01:14:49.204Z,984.04
2022-10-09T01:19:49.144Z,984.03
2022-10-09T01:24:49.098Z,983.98
2022-10-09T01:29:49.055Z,984.00
2022-10-09T01:34:48.964Z,983.94
2022-10-09T01:39:48.914Z,983.98
2022-10-09T01:44:48.826Z,983.86
2022-10-09T01:49:48.787Z,983.83
2022-10-09T01:54:48.726Z,983.85
2022-10-09T01:59:48.680Z,983.78
2022-10-09T02:04:48.646Z,983.73
2022-10-09T02:09:48.582Z,983.70
2022-10-09T02:14:48.485Z,983.69
2022-10-09T02:19:48.445Z,983.69
2022-10-09T02:24:48.380Z,983.66
2022-10-09T02:29:48.317Z,983.71
2022-10-09T02:34:48.298Z,983.67
2022-10-09T02:39:48.235Z,983.69
2022-10-09T02:44:48.167Z,983.71
2022-10-09T02:49:48.095Z,983.67
2022-10-09T02:54:48.037Z,983.71
2022-10-09T02:59:47.965Z,983.67
2022-10-09T03:04:47.910Z,983.62
2022-10-09T03:09:47.855Z,983.64
2022-10-09T03:14:47.794Z,983.59
2022-10-09T03:19:47.744Z,983.57
2022-10-09T03:24:47.676Z,983.59
2022-10-09T03:29:47.617Z,983.55
2022-10-09T03:34:47.567Z,983.63
2022-10-09T03:39:47.518Z,983.61
2022-10-09T03:44:47.504Z,983.60
2022-10-09T03:49:47.406Z,983.65
2022-10-09T03:54:47.332Z,983.60
2022-10-09T03:59:47.269Z,983.69
2022-10-09T04:04:47.212Z,983.63
2022-10-09T04:09:47.174Z,983.64
2022-10-09T04:14:47.099Z,983.62
2022-10-09T04:19:47.046Z,983.62
2022-10-09T04:24:46.996Z,983.65
2022-10-09T04:29:46.928Z,983.65
2022-10-09T04:34:46.882Z,983.71
2022-10-09T04:39:46.855Z,983.65
2022-10-09T04:44:46.761Z,983.73
2022-10-09T04:49:46.697Z,983.68
2022-10-09T04:54:46.645Z,983.69
2022-10-09T04:59:46.598Z,983.61
2022-10-09T05:04:46.548Z,983.65
2022-10-09T05:09:46.477Z,983.65
2022-10-09T05:14:46.432Z,983.76
2022-10-09T05:19:46.373Z,983.74
2022-10-09T05:24:46.335Z,983.85
2022-10-09T05:29:46.251Z,983.87
2022-10-09T05:34:46.192Z,983.82
2022-10-09T05:39:46.139Z,983.80
2022-10-09T05:44:46.089Z,983.87
2022-10-09T05:49:46.049Z,983.87
2022-10-09T05:54:45.985Z,983.89
2022-10-09T05:59:45.919Z,983.90
2022-10-09T06:04:45.848Z,983.92
2022-10-09T06:09:45.789Z,983.90
2022-10-09T06:14:45.748Z,983.96
2022-10-09T06:19:45.691Z,983.94
2022-10-09T06:24:45.627Z,983.97
2022-10-09T06:29:45.578Z,983.98
2022-10-09T06:34:45.508Z,984.02
2022-10-09T06:39:45.460Z,984.04
2022-10-09T06:44:45.431Z,984.13
2022-10-09T06:49:45.343Z,984.16
2022-10-09T06:54:45.287Z,984.19
2022-10-09T06:59:45.230Z,984.18
2022-10-09T07:04:45.179Z,984.21
2022-10-09T07:09:45.121Z,984.22
2022-10-09T07:14:45.058Z,984.20
2022-10-09T07:19:45.005Z,984.26
2022-10-09T07:24:44.939Z,984.23
2022-10-09T07:29:44.894Z,984.22
2022-10-09T07:34:44.830Z,984.17
2022-10-09T07:39:45.193Z,984.14
2022-10-09T07:44:44.691Z,984.04
2022-10-09T07:49:44.650Z,983.98
2022-10-09T07:54:44.570Z,983.97
2022-10-09T07:59:44.592Z,983.89
2022-10-09T08:04:44.431Z,983.91
2022-10-09T08:09:44.360Z,983.92
2022-10-09T08:14:44.303Z,983.90
2022-10-09T08:19:44.236Z,983.86
2022-10-09T08:24:44.171Z,983.81
2022-10-09T08:29:44.122Z,983.84
2022-10-09T08:34:44.040Z,983.82
2022-10-09T08:39:43.983Z,983.74
2022-10-09T08:44:43.919Z,983.70
2022-10-09T08:49:44.173Z,983.68
2022-10-09T08:54:43.792Z,983.64
2022-10-09T08:59:43.724Z,983.56
2022-10-09T09:04:43.672Z,983.55
2022-10-09T09:09:43.593Z,983.53
2022-10-09T09:14:43.525Z,983.58
2022-10-09T09:19:43.477Z,983.53
2022-10-09T09:24:43.423Z,983.48
2022-10-09T09:29:43.353Z,983.45
2022-10-09T09:34:43.267Z,983.41
2022-10-09T09:44:44.166Z,983.32
2022-10-09T09:49:43.099Z,983.31
2022-10-09T09:54:43.017Z,983.28
2022-10-09T09:59:42.974Z,983.18
2022-10-09T10:04:43.364Z,983.17
2022-10-09T10:09:42.840Z,983.11
2022-10-09T10:14:42.767Z,983.03
2022-10-09T10:19:42.711Z,983.03
2022-10-09T10:24:42.630Z,982.96
2022-10-09T10:29:42.571Z,982.93
2022-10-09T10:34:42.524Z,982.85
2022-10-09T10:39:42.454Z,982.79
2022-10-09T10:44:42.394Z,982.79
2022-10-09T10:49:42.325Z,982.72
2022-10-09T10:54:42.263Z,982.60
2022-10-09T10:59:42.195Z,982.60
2022-10-09T11:04:42.143Z,982.57
2022-10-09T11:09:42.087Z,982.42
2022-10-09T11:14:42.050Z,982.33
2022-10-09T11:19:45.399Z,982.21
2022-10-09T11:24:41.921Z,982.09
2022-10-09T11:29:41.837Z,982.07
2022-10-09T11:34:41.811Z,982.00
2022-10-09T11:39:41.709Z,981.89
2022-10-09T11:44:41.660Z,981.85
2022-10-09T11:49:41.593Z,981.75
2022-10-09T11:54:41.512Z,981.63
2022-10-09T11:59:41.452Z,981.60
2022-10-09T12:04:54.486Z,981.55
2022-10-09T12:09:42.353Z,981.50
2022-10-09T12:14:41.257Z,981.40
2022-10-09T12:19:41.195Z,981.41
2022-10-09T12:24:41.125Z,981.32
2022-10-09T12:29:41.058Z,981.26
2022-10-09T12:34:41.007Z,981.14
2022-10-09T12:39:40.956Z,981.10
2022-10-09T12:44:41.187Z,981.08
2022-10-09T12:49:40.819Z,981.04
2022-10-09T12:54:40.748Z,981.01
2022-10-09T12:59:40.672Z,980.91
2022-10-09T13:04:40.611Z,980.88
2022-10-09T13:09:40.567Z,980.80
2022-10-09T13:14:40.489Z,980.75
2022-10-09T13:19:40.432Z,980.71
2022-10-09T13:24:40.407Z,980.76
2022-10-09T13:29:40.294Z,980.64
2022-10-09T13:34:40.252Z,980.59
2022-10-09T13:39:40.166Z,980.61
2022-10-09T13:44:40.125Z,980.54
2022-10-09T13:49:40.056Z,980.37
2022-10-09T13:54:40.007Z,980.29
2022-10-09T13:59:39.929Z,980.38
2022-10-09T14:04:39.852Z,980.29
2022-10-09T14:09:39.808Z,980.30
2022-10-09T14:14:40.766Z,980.24
2022-10-09T14:19:39.690Z,980.15
2022-10-09T14:24:39.677Z,980.08
2022-10-09T14:29:39.892Z,980.09
2022-10-09T14:34:39.532Z,980.01
2022-10-09T14:39:39.427Z,980.05
2022-10-09T14:44:39.393Z,980.07
2022-10-09T14:49:39.292Z,979.92
2022-10-09T14:54:39.265Z,979.95
2022-10-09T14:59:39.165Z,979.88
2022-10-09T15:04:39.187Z,979.83
2022-10-09T15:09:39.046Z,979.79
2022-10-09T15:14:38.980Z,979.76
2022-10-09T15:19:38.916Z,979.70
2022-10-09T15:24:38.882Z,979.72
2022-10-09T15:29:38.759Z,979.69
2022-10-09T15:34:40.948Z,979.65
2022-10-09T15:39:38.680Z,979.58
2022-10-09T15:44:38.576Z,979.47
2022-10-09T15:49:38.529Z,979.50
2022-10-09T15:54:38.461Z,979.48
2022-10-09T15:59:38.404Z,979.51
2022-10-09T16:04:38.361Z,979.44
2022-10-09T16:09:38.258Z,979.38
2022-10-09T16:14:38.213Z,979.37
2022-10-09T16:19:38.156Z,979.37
2022-10-09T16:24:38.104Z,979.32
2022-10-09T16:29:38.001Z,979.32
2022-10-09T16:34:37.974Z,979.33
2022-10-09T16:39:37.886Z,979.28
2022-10-09T16:44:37.825Z,979.28
2022-10-09T16:49:37.755Z,979.29
2022-10-09T16:54:37.692Z,979.31
2022-10-09T16:59:37.646Z,979.33
2022-10-09T17:04:37.585Z,979.28
2022-10-09T17:09:37.485Z,979.28
2022-10-09T17:14:37.469Z,979.25
2022-10-09T17:19:37.387Z,979.17
2022-10-09T17:24:37.308Z,979.21
2022-10-09T17:29:37.283Z,979.10
2022-10-09T17:34:37.188Z,979.12
2022-10-09T17:39:37.110Z,979.08
2022-10-09T17:44:37.058Z,979.07
2022-10-09T17:49:36.980Z,979.02
2022-10-09T17:54:36.927Z,979.07
2022-10-09T17:59:36.858Z,979.12
2022-10-09T18:04:36.839Z,979.05
2022-10-09T18:09:36.740Z,979.03
2022-10-09T18:14:36.692Z,979.05
2022-10-09T18:19:36.613Z,979.08
2022-10-09T18:24:36.542Z,979.02
2022-10-09T18:29:36.482Z,978.99
2022-10-09T18:34:39.203Z,978.91
2022-10-09T18:39:36.362Z,978.92
2022-10-09T18:44:36.327Z,978.88
2022-10-09T18:49:36.275Z,978.79
2022-10-09T18:54:36.181Z,978.78
2022-10-09T18:59:36.124Z,978.66
2022-10-09T19:04:36.058Z,978.62
2022-10-09T19:09:35.985Z,978.61
2022-10-09T19:14:35.953Z,978.60
2022-10-09T19:19:35.864Z,978.54
2022-10-09T19:24:35.786Z,978.44
2022-10-09T19:29:35.734Z,978.42
2022-10-09T19:34:35.666Z,978.38
2022-10-09T19:39:35.598Z,978.38
2022-10-09T19:44:35.559Z,978.40
2022-10-09T19:49:35.499Z,978.30
2022-10-09T19:54:35.408Z,978.39
2022-10-09T19:59:35.346Z,978.30
2022-10-09T20:04:35.298Z,978.32
2022-10-09T20:09:35.244Z,978.28
2022-10-09T20:14:35.164Z,978.24
2022-10-09T20:19:35.100Z,978.17
2022-10-09T20:24:35.030Z,978.15
2022-10-09T20:29:34.970Z,978.18
2022-10-09T20:34:34.930Z,978.16
2022-10-09T20:39:34.837Z,978.15
2022-10-09T20:44:34.803Z,978.13
2022-10-09T20:49:34.713Z,978.11
2022-10-09T20:54:34.665Z,978.02
2022-10-09T20:59:34.592Z,977.99
2022-10-09T21:04:34.543Z,978.01
2022-10-09T21:09:34.443Z,977.98
2022-10-09T21:14:34.395Z,978.03
2022-10-09T21:19:34.323Z,977.99
2022-10-09T21:24:34.293Z,978.08
2022-10-09T21:29:34.194Z,977.99
2022-10-09T21:34:34.144Z,977.99
2022-10-09T21:39:34.107Z,977.94
2022-10-09T21:44:34.023Z,977.92
2022-10-09T21:49:33.968Z,977.93
2022-10-09T21:54:33.916Z,977.91
2022-10-09T21:59:33.813Z,977.88
2022-10-09T22:04:33.755Z,977.92
2022-10-09T22:09:33.678Z,977.91
2022-10-09T22:14:33.636Z,977.85
2022-10-09T22:19:33.578Z,977.77
2022-10-09T22:24:33.497Z,977.79
2022-10-09T22:29:33.418Z,977.77
2022-10-09T22:34:33.377Z,977.72
2022-10-09T22:39:33.286Z,977.67
2022-10-09T22:44:33.227Z,977.60
2022-10-09T22:49:33.163Z,977.59
2022-10-09T22:54:33.119Z,977.57
2022-10-09T22:59:33.044Z,977.54
2022-10-09T23:04:32.973Z,977.55
2022-10-09T23:09:32.889Z,977.49
2022-10-09T23:14:32.880Z,977.58
2022-10-09T23:19:32.759Z,977.61
2022-10-09T23:24:32.686Z,977.63
2022-10-09T23:29:32.641Z,977.54
2022-10-09T23:34:32.549Z,977.56
2022-10-09T23:39:32.479Z,977.61
2022-10-09T23:44:32.410Z,977.54
2022-10-09T23:49:32.383Z,977.51
2022-10-09T23:54:32.284Z,977.49
2022-10-09T23:59:32.202Z,977.53
